.
WxDataArchive / Data Records for 2010-04-24
2010-04-23 April 2010 2010-04-25

Data Records for Saturday, 24 April 2010

Time	Temp	Chill	HIndex	Humid	Dewpt	 Wind 	HiWind	WindDir	Rain 	Barom 
-----	----	-----	------	-----	-----	------	------	-------	-----	----- 
00:00	49.4	49.4	49.4	75	41.8	0	3	68	0.00	29.938 
00:05	49.4	49.4	49.4	74	41.5	0	3	68	0.00	29.938 
00:10	49.2	49.2	49.2	73	40.9	1	4	90	0.00	29.938 
00:15	49.2	49.2	49.2	73	40.9	0	2	112	0.00	29.926 
00:20	49.2	49.2	49.2	72	40.6	2	5	112	0.00	29.926 
00:25	49.4	49.4	49.4	70	40.0	2	5	112	0.00	29.926 
00:30	49.4	49.4	49.4	69	39.7	3	10	112	0.00	29.917 
00:35	49.4	49.4	49.4	68	39.3	3	7	112	0.00	29.917 
00:40	49.2	49.2	49.2	66	38.3	3	10	112	0.00	29.917 
00:45	49.4	49.4	49.4	66	38.5	2	5	90	0.00	29.911 
00:50	49.2	49.2	49.2	65	37.9	2	9	112	0.00	29.911 
00:55	49.2	49.2	49.2	65	37.9	1	5	90	0.00	29.911 
01:00	49.2	49.2	49.2	66	38.3	1	2	112	0.00	29.919 
01:05	49.2	49.2	49.2	67	38.7	1	3	112	0.00	29.919 
01:10	49.2	49.2	49.2	68	39.1	0	2	112	0.00	29.919 
01:15	49.1	49.1	49.1	69	39.4	1	4	68	0.00	29.916 
01:20	48.9	48.9	48.9	70	39.6	0	2	68	0.01	29.916 
01:25	48.8	48.8	48.8	72	40.2	0	2	68	0.01	29.916 
01:30	48.3	48.3	48.3	75	40.7	1	4	68	0.01	29.919 
01:35	47.9	47.9	47.9	78	41.4	1	2	68	0.02	29.919 
01:40	47.3	47.3	47.3	80	41.4	1	4	68	0.01	29.919 
01:45	46.8	46.8	46.8	82	41.6	1	4	90	0.02	29.922 
01:50	46.5	46.5	46.5	84	41.9	2	6	112	0.01	29.922 
01:55	46.2	46.2	46.2	85	41.9	2	6	90	0.01	29.922 
02:00	46.0	46.0	46.0	86	42.0	1	5	112	0.03	29.912 
02:05	45.8	45.8	45.8	87	42.2	0	2	90	0.01	29.912 
02:10	45.7	45.7	45.7	88	42.4	1	4	90	0.01	29.912 
02:15	45.5	45.5	45.5	88	42.2	1	5	112	0.00	29.906 
02:20	45.5	45.5	45.5	88	42.2	3	9	90	0.00	29.906 
02:25	45.4	43.6	45.4	88	42.1	4	10	112	0.01	29.906 
02:30	45.4	45.4	45.4	88	42.1	3	7	112	0.00	29.893 
02:35	45.4	45.4	45.4	88	42.1	3	6	90	0.00	29.893 
02:40	45.4	45.4	45.4	89	42.3	2	7	68	0.00	29.893 
02:45	45.5	45.5	45.5	89	42.4	2	6	90	0.00	29.888 
02:50	45.5	45.5	45.5	90	42.7	1	6	112	0.01	29.888 
02:55	45.5	45.5	45.5	90	42.7	1	5	112	0.01	29.888 
03:00	45.5	45.5	45.5	91	43.0	1	7	90	0.00	29.886 
03:05	45.7	45.7	45.7	91	43.2	1	4	90	0.00	29.886 
03:10	45.7	45.7	45.7	92	43.5	0	4	68	0.00	29.886 
03:15	46.0	46.0	46.0	92	43.8	1	3	68	0.00	29.879 
03:20	46.2	46.2	46.2	92	44.0	3	7	90	0.00	29.879 
03:25	46.2	46.2	46.2	92	44.0	2	5	90	0.00	29.879 
03:30	46.5	46.5	46.5	93	44.6	2	6	90	0.00	29.872 
03:35	46.7	46.7	46.7	93	44.8	3	8	90	0.00	29.872 
03:40	46.7	46.7	46.7	93	44.8	2	6	112	0.00	29.872 
03:45	46.8	46.8	46.8	93	44.9	1	3	68	0.00	29.871 
03:50	47.0	47.0	47.0	94	45.4	2	4	68	0.00	29.871 
03:55	47.1	47.1	47.1	94	45.5	1	3	68	0.00	29.871 
04:00	47.3	47.3	47.3	94	45.7	0	2	45	0.00	29.872 
04:05	47.4	47.4	47.4	94	45.8	0	3	90	0.00	29.872 
04:10	47.4	47.4	47.4	94	45.8	0	3	90	0.00	29.872 
04:15	47.4	47.4	47.4	94	45.8	1	4	90	0.00	29.870 
04:20	47.4	47.4	47.4	94	45.8	1	4	90	0.00	29.870 
04:25	47.4	47.4	47.4	94	45.8	0	2	90	0.00	29.870 
04:30	47.4	47.4	47.4	94	45.8	0	1	90	0.00	29.879 
04:35	47.4	47.4	47.4	94	45.8	0	2	90	0.00	29.879 
04:40	47.4	47.4	47.4	94	45.8	0	1	90	0.00	29.879 
04:45	47.6	47.6	47.6	94	46.0	1	3	90	0.00	29.874 
04:50	47.9	47.9	47.9	94	46.3	1	5	90	0.00	29.874 
04:55	48.0	48.0	48.0	95	46.6	2	5	90	0.00	29.874 
05:00	48.2	48.2	48.2	95	46.8	2	4	90	0.00	29.869 
05:05	48.3	48.3	48.3	95	46.9	3	6	90	0.00	29.869 
05:10	48.5	48.5	48.5	95	47.1	2	7	90	0.00	29.869 
05:15	48.8	48.8	48.8	95	47.4	3	6	90	0.00	29.865 
05:20	48.9	48.9	48.9	95	47.5	2	5	90	0.00	29.865 
05:25	49.2	49.2	49.2	95	47.8	3	6	90	0.01	29.865 
05:30	49.4	49.4	49.4	95	48.0	2	6	90	0.00	29.857 
05:35	49.5	49.5	49.5	95	48.1	3	6	90	0.00	29.857 
05:40	49.5	49.5	49.5	95	48.1	3	6	112	0.00	29.857 
05:45	49.6	49.6	49.6	95	48.2	2	7	90	0.00	29.856 
05:50	49.6	49.6	49.6	95	48.2	3	7	90	0.00	29.856 
05:55	49.8	49.8	49.8	95	48.4	3	6	90	0.00	29.856 
06:00	49.8	49.8	49.8	95	48.4	3	6	90	0.00	29.849 
06:05	49.9	49.9	49.9	95	48.5	2	4	112	0.00	29.849 
06:10	49.9	49.9	49.9	95	48.5	3	9	90	0.00	29.849 
06:15	49.9	49.9	49.9	95	48.5	3	6	90	0.00	29.852 
06:20	50.1	50.1	50.1	95	48.7	2	6	112	0.01	29.852 
06:25	50.1	50.1	50.1	95	48.7	3	6	90	0.00	29.852 
06:30	50.1	50.1	50.1	95	48.7	3	6	90	0.00	29.839 
06:35	50.1	50.1	50.1	95	48.7	3	6	90	0.00	29.839 
06:40	50.1	50.1	50.1	95	48.7	4	11	90	0.00	29.839 
06:45	50.1	50.1	50.1	95	48.7	3	10	112	0.00	29.833 
06:50	50.1	50.1	50.1	95	48.7	3	6	90	0.00	29.833 
06:55	50.2	50.2	50.2	95	48.8	3	6	90	0.00	29.833 
07:00	50.2	50.2	50.2	95	48.8	3	6	90	0.00	29.826 
07:05	50.4	50.4	50.4	95	49.0	3	10	90	0.00	29.826 
07:10	50.4	50.4	50.4	95	49.0	2	5	90	0.00	29.826 
07:15	50.5	50.5	50.5	95	49.1	3	6	90	0.00	29.825 
07:20	50.7	50.7	50.7	95	49.3	2	5	90	0.00	29.825 
07:25	50.8	50.8	50.8	95	49.4	3	7	90	0.00	29.825 
07:30	51.0	51.0	51.0	95	49.6	3	6	90	0.00	29.822 
07:35	51.1	51.1	51.1	95	49.7	3	9	90	0.00	29.822 
07:40	51.1	51.1	51.1	95	49.7	3	9	90	0.00	29.822 
07:45	51.3	51.3	51.3	95	49.9	2	5	90	0.00	29.815 
07:50	51.3	51.3	51.3	95	49.9	3	10	135	0.00	29.815 
07:55	51.4	51.4	51.4	95	50.0	4	11	90	0.00	29.815 
08:00	51.6	51.6	51.6	95	50.2	3	6	112	0.00	29.815 
08:05	51.7	51.7	51.7	95	50.3	3	7	90	0.00	29.815 
08:10	51.9	51.9	51.9	95	50.5	4	7	90	0.00	29.815 
08:15	51.9	51.9	51.9	95	50.5	3	7	112	0.00	29.827 
08:20	52.0	52.0	52.0	94	50.3	4	7	112	0.00	29.827 
08:25	52.2	52.2	52.2	94	50.5	4	6	90	0.00	29.827 
08:30	52.2	52.2	52.2	94	50.5	4	10	90	0.00	29.825 
08:35	52.3	52.3	52.3	94	50.6	3	7	90	0.00	29.825 
08:40	52.3	52.3	52.3	94	50.6	3	10	90	0.00	29.825 
08:45	52.5	52.5	52.5	94	50.8	3	6	90	0.00	29.815 
08:50	52.6	52.6	52.6	94	50.9	3	6	90	0.00	29.815 
08:55	52.6	52.6	52.6	94	50.9	3	6	90	0.00	29.815 
09:00	52.8	52.8	52.8	94	51.1	3	9	90	0.00	29.816 
09:05	52.8	52.8	52.8	94	51.1	3	6	90	0.00	29.816 
09:10	52.9	52.9	52.9	94	51.2	2	4	68	0.00	29.816 
09:15	53.1	53.1	53.1	94	51.4	1	4	68	0.00	29.826 
09:20	53.1	53.1	53.1	94	51.4	0	4	90	0.00	29.826 
09:25	53.2	53.2	53.2	94	51.5	2	4	90	0.00	29.826 
09:30	53.3	53.3	53.3	93	51.3	3	7	90	0.00	29.825 
09:35	53.6	53.6	53.6	93	51.6	2	5	90	0.00	29.825 
09:40	53.8	53.8	53.8	93	51.8	2	5	90	0.00	29.825 
09:45	54.1	54.1	54.1	93	52.1	2	5	90	0.00	29.810 
09:50	54.1	54.1	54.1	92	51.8	4	11	90	0.00	29.810 
09:55	54.2	54.2	54.2	92	51.9	4	14	90	0.00	29.810 
10:00	54.4	54.4	54.4	92	52.1	3	7	90	0.00	29.797 
10:05	54.5	54.5	54.5	92	52.2	4	6	90	0.00	29.797 
10:10	54.5	54.5	54.5	92	52.2	4	9	112	0.00	29.797 
10:15	54.7	54.7	54.7	91	52.1	4	11	90	0.00	29.790 
10:20	54.8	54.8	54.8	91	52.2	2	5	112	0.00	29.790 
10:25	55.3	55.3	55.3	91	52.7	2	6	112	0.00	29.790 
10:30	55.4	55.4	55.4	90	52.5	3	7	90	0.00	29.793 
10:35	55.7	55.7	55.7	90	52.8	3	6	90	0.00	29.793 
10:40	56.0	56.0	56.0	89	52.8	3	9	90	0.00	29.793 
10:45	56.5	56.5	56.5	88	53.0	4	7	90	0.00	29.779 
10:50	56.9	56.9	56.9	88	53.4	4	10	112	0.00	29.779 
10:55	57.3	57.3	57.3	87	53.5	4	12	90	0.00	29.779 
11:00	57.8	57.8	57.8	85	53.3	4	12	112	0.00	29.764 
11:05	58.1	58.1	58.1	85	53.6	4	10	90	0.00	29.764 
11:10	58.7	58.7	58.7	84	53.9	3	7	112	0.00	29.764 
11:15	59.0	59.0	59.0	83	53.8	4	10	112	0.00	29.759 
11:20	59.5	59.5	59.5	83	54.3	3	7	90	0.00	29.759 
11:25	59.5	59.5	59.5	81	53.7	4	9	90	0.00	29.759 
11:30	59.6	59.6	59.6	82	54.1	3	6	90	0.00	29.761 
11:35	59.8	59.8	59.8	82	54.3	1	4	112	0.00	29.761 
11:40	59.6	59.6	59.6	81	53.8	3	6	90	0.00	29.761 
11:45	59.8	59.8	59.8	82	54.3	1	4	90	0.00	29.767 
11:50	59.9	59.9	59.9	82	54.4	1	3	112	0.00	29.767 
11:55	60.1	60.1	60.1	82	54.6	1	5	112	0.00	29.767 
12:00	60.1	60.1	60.1	82	54.6	1	3	112	0.00	29.775 
12:05	60.2	60.2	60.2	82	54.7	0	3	112	0.00	29.775 
12:10	60.2	60.2	60.2	82	54.7	0	2	112	0.00	29.775 
12:15	60.4	60.4	60.4	82	54.9	0	2	112	0.00	29.763 
12:20	60.4	60.4	60.4	82	54.9	1	4	112	0.00	29.763 
12:25	60.5	60.5	60.5	83	55.3	0	2	112	0.00	29.763 
12:30	60.5	60.5	60.5	83	55.3	0	3	112	0.00	29.760 
12:35	60.7	60.7	60.7	83	55.5	1	3	112	0.00	29.760 
12:40	60.7	60.7	60.7	83	55.5	1	2	112	0.00	29.760 
12:45	60.9	60.9	60.9	85	56.4	0	3	112	0.00	29.757 
12:50	60.9	60.9	60.9	85	56.4	0	1	112	0.00	29.757 
12:55	60.9	60.9	60.9	86	56.7	0	1	112	0.01	29.757 
13:00	60.7	60.7	60.7	87	56.8	0	1	112	0.00	29.759 
13:05	60.7	60.7	60.7	88	57.1	0	1	112	0.00	29.759 
13:10	60.9	60.9	60.9	89	57.6	0	0	---	0.01	29.759 
13:15	60.9	60.9	60.9	89	57.6	0	3	112	0.00	29.749 
13:20	61.0	61.0	61.0	90	58.0	0	1	112	0.00	29.749 
13:25	61.0	61.0	61.0	91	58.4	0	1	112	0.00	29.749 
13:30	61.0	61.0	61.0	91	58.4	0	2	112	0.00	29.743 
13:35	60.9	60.9	60.9	91	58.3	1	3	112	0.00	29.743 
13:40	60.9	60.9	60.9	92	58.6	1	3	112	0.01	29.743 
13:45	60.9	60.9	60.9	92	58.6	1	4	112	0.00	29.728 
13:50	61.0	61.0	61.0	93	59.0	0	2	112	0.00	29.728 
13:55	61.0	61.0	61.0	93	59.0	1	3	112	0.00	29.728 
14:00	61.2	61.2	61.2	93	59.2	1	4	90	0.00	29.715 
14:05	61.0	61.0	61.0	93	59.0	1	3	90	0.00	29.715 
14:10	60.9	60.9	60.9	93	58.9	1	3	90	0.00	29.715 
14:15	60.7	60.7	60.7	93	58.7	0	2	90	0.00	29.722 
14:20	60.9	60.9	60.9	94	59.2	0	0	---	0.00	29.722 
14:25	61.0	61.0	61.0	94	59.3	0	2	90	0.00	29.722 
14:30	61.3	61.3	61.3	94	59.6	0	2	90	0.00	29.717 
14:35	61.3	61.3	61.3	94	59.6	0	2	90	0.00	29.717 
14:40	61.5	61.5	61.5	94	59.8	0	2	90	0.00	29.717 
14:45	61.6	61.6	61.6	94	59.9	0	2	90	0.00	29.714 
14:50	61.8	61.8	61.8	94	60.1	0	2	90	0.00	29.714 
14:55	61.6	61.6	61.6	94	59.9	1	3	112	0.00	29.714 
15:00	61.5	61.5	61.5	94	59.8	1	3	68	0.00	29.710 
15:05	61.5	61.5	61.5	94	59.8	1	4	135	0.01	29.710 
15:10	61.6	61.6	61.6	94	59.9	1	3	135	0.00	29.710 
15:15	62.0	62.0	62.0	94	60.2	0	3	135	0.00	29.702 
15:20	62.0	62.0	62.0	94	60.2	1	3	135	0.00	29.702 
15:25	62.0	62.0	62.0	94	60.2	0	2	135	0.00	29.702 
15:30	62.0	62.0	62.0	94	60.2	1	3	135	0.01	29.698 
15:35	62.0	62.0	62.0	94	60.2	0	1	158	0.00	29.698 
15:40	62.0	62.0	62.0	94	60.2	0	1	158	0.00	29.698 
15:45	62.1	62.1	62.1	94	60.3	0	2	158	0.01	29.694 
15:50	62.3	62.3	62.3	95	60.8	0	2	158	0.01	29.694 
15:55	62.3	62.3	62.3	95	60.8	1	3	158	0.00	29.694 
16:00	62.4	62.4	62.4	95	60.9	1	2	158	0.01	29.674 
16:05	62.7	62.7	62.7	95	61.2	1	3	158	0.00	29.674 
16:10	62.9	62.9	62.9	95	61.4	2	5	90	0.00	29.674 
16:15	62.9	62.9	62.9	95	61.4	1	4	90	0.00	29.653 
16:20	63.1	63.1	63.1	95	61.6	1	4	135	0.00	29.653 
16:25	63.2	63.2	63.2	95	61.7	0	2	135	0.00	29.653 
16:30	63.2	63.2	63.2	95	61.7	1	4	112	0.00	29.636 
16:35	63.1	63.1	63.1	95	61.6	1	4	112	0.00	29.636 
16:40	63.2	63.2	63.2	95	61.7	1	4	112	0.00	29.636 
16:45	63.4	63.4	63.4	95	61.9	2	5	90	0.00	29.631 
16:50	63.4	63.4	63.4	95	61.9	2	4	112	0.00	29.631 
16:55	63.4	63.4	63.4	95	61.9	2	4	112	0.00	29.631 
17:00	63.4	63.4	63.4	95	61.9	2	5	112	0.00	29.618 
17:05	63.2	63.2	63.2	94	61.4	3	7	112	0.00	29.618 
17:10	63.2	63.2	63.2	94	61.4	3	9	90	0.00	29.618 
17:15	63.2	63.2	63.2	94	61.4	3	10	112	0.00	29.619 
17:20	63.2	63.2	63.2	94	61.4	2	5	68	0.00	29.619 
17:25	63.4	63.4	63.4	93	61.3	2	5	90	0.00	29.619 
17:30	63.4	63.4	63.4	93	61.3	2	4	90	0.00	29.620 
17:35	63.4	63.4	63.4	93	61.3	1	5	90	0.00	29.620 
17:40	63.4	63.4	63.4	93	61.3	2	6	112	0.00	29.620 
17:45	63.4	63.4	63.4	93	61.3	2	5	112	0.00	29.616 
17:50	63.4	63.4	63.4	93	61.3	2	6	112	0.00	29.616 
17:55	63.4	63.4	63.4	92	61.0	2	5	112	0.00	29.616 
18:00	63.4	63.4	63.4	92	61.0	2	5	90	0.00	29.614 
18:05	63.4	63.4	63.4	92	61.0	3	7	112	0.00	29.614 
18:10	63.2	63.2	63.2	92	60.8	3	5	90	0.00	29.614 
18:15	63.2	63.2	63.2	92	60.8	3	6	90	0.00	29.608 
18:20	63.1	63.1	63.1	92	60.7	3	6	90	0.00	29.608 
18:25	63.1	63.1	63.1	93	61.0	2	4	90	0.00	29.608 
18:30	62.9	62.9	62.9	93	60.8	3	6	90	0.00	29.594 
18:35	62.9	62.9	62.9	93	60.8	2	5	90	0.00	29.594 
18:40	62.9	62.9	62.9	93	60.8	4	7	90	0.00	29.594 
18:45	62.7	62.7	62.7	93	60.6	3	6	90	0.00	29.579 
18:50	62.7	62.7	62.7	93	60.6	2	7	112	0.00	29.579 
18:55	62.6	62.6	62.6	93	60.5	3	9	90	0.00	29.579 
19:00	62.4	62.4	62.4	93	60.3	4	11	90	0.00	29.582 
19:05	62.4	62.4	62.4	93	60.3	2	5	90	0.00	29.582 
19:10	62.3	62.3	62.3	93	60.2	3	8	90	0.00	29.582 
19:15	62.3	62.3	62.3	93	60.2	4	10	90	0.00	29.574 
19:20	62.1	62.1	62.1	93	60.0	3	9	90	0.00	29.574 
19:25	62.1	62.1	62.1	93	60.0	3	6	90	0.00	29.574 
19:30	62.0	62.0	62.0	93	59.9	3	6	112	0.00	29.565 
19:35	62.0	62.0	62.0	93	59.9	3	10	112	0.00	29.565 
19:40	62.0	62.0	62.0	93	59.9	3	7	90	0.00	29.565 
19:45	62.0	62.0	62.0	94	60.2	3	6	90	0.00	29.553 
19:50	62.0	62.0	62.0	94	60.2	2	6	112	0.00	29.553 
19:55	61.8	61.8	61.8	94	60.1	3	6	68	0.00	29.553 
20:00	61.8	61.8	61.8	94	60.1	4	10	112	0.00	29.543 
20:05	61.8	61.8	61.8	94	60.1	4	10	90	0.00	29.543 
20:10	61.8	61.8	61.8	95	60.3	2	10	90	0.00	29.543 
20:15	61.6	61.6	61.6	95	60.2	3	10	90	0.00	29.548 
20:20	61.6	61.6	61.6	95	60.2	3	6	90	0.01	29.548 
20:25	61.6	61.6	61.6	95	60.2	4	8	90	0.03	29.548 
20:30	61.6	61.6	61.6	95	60.2	4	6	90	0.03	29.543 
20:35	61.6	61.6	61.6	95	60.2	4	7	90	0.03	29.543 
20:40	61.5	61.5	61.5	95	60.1	4	7	90	0.03	29.543 
20:45	61.5	61.5	61.5	96	60.3	3	6	90	0.01	29.536 
20:50	61.5	61.5	61.5	96	60.3	3	5	90	0.00	29.536 
20:55	61.3	61.3	61.3	96	60.1	3	10	112	0.01	29.536 
21:00	61.3	61.3	61.3	96	60.1	4	10	90	0.03	29.531 
21:05	61.3	61.3	61.3	96	60.1	3	11	112	0.01	29.531 
21:10	61.2	61.2	61.2	96	60.0	3	6	90	0.03	29.531 
21:15	61.2	61.2	61.2	96	60.0	4	9	112	0.03	29.526 
21:20	61.2	61.2	61.2	96	60.0	4	11	90	0.03	29.526 
21:25	61.2	61.2	61.2	96	60.0	3	10	112	0.04	29.526 
21:30	61.2	61.2	61.2	96	60.0	2	6	135	0.03	29.520 
21:35	61.2	61.2	61.2	96	60.0	3	9	90	0.03	29.520 
21:40	61.0	61.0	61.0	96	59.8	4	9	90	0.03	29.520 
21:45	61.2	61.2	61.2	96	60.0	5	10	90	0.02	29.516 
21:50	61.2	61.2	61.2	96	60.0	3	10	90	0.01	29.516 
21:55	61.2	61.2	61.2	96	60.0	2	5	68	0.00	29.516 
22:00	61.2	61.2	61.2	96	60.0	3	7	90	0.00	29.503 
22:05	61.2	61.2	61.2	96	60.0	4	7	90	0.00	29.503 
22:10	60.9	60.9	60.9	96	59.7	3	11	90	0.00	29.503 
22:15	60.5	60.5	60.5	96	59.4	3	11	90	0.01	29.461 
22:20	60.7	60.7	60.7	96	59.6	3	11	90	0.00	29.461 
22:25	60.5	60.5	60.5	96	59.4	2	6	112	0.00	29.461 
22:30	60.2	60.2	60.2	96	59.1	2	5	90	0.00	29.443 
22:35	60.4	60.4	60.4	96	59.3	2	10	68	0.00	29.443 
22:40	60.7	60.7	60.7	97	59.8	4	6	112	0.00	29.443 
22:45	60.7	60.7	60.7	96	59.6	3	9	90	0.00	29.438 
22:50	60.4	60.4	60.4	96	59.3	3	7	112	0.00	29.438 
22:55	60.4	60.4	60.4	96	59.3	3	9	90	0.00	29.438 
23:00	60.2	60.2	60.2	96	59.1	3	7	90	0.00	29.431 
23:05	60.2	60.2	60.2	96	59.1	1	4	112	0.00	29.431 
23:10	60.2	60.2	60.2	96	59.1	4	9	90	0.00	29.431 
23:15	60.4	60.4	60.4	96	59.3	4	13	112	0.00	29.420 
23:20	60.4	60.4	60.4	96	59.3	8	14	90	0.00	29.420 
23:25	60.5	60.5	60.5	96	59.4	5	10	112	0.00	29.420 
23:30	60.5	60.5	60.5	96	59.4	5	10	90	0.00	29.395 
23:35	60.5	60.5	60.5	96	59.4	3	7	90	0.00	29.395 
23:40	60.5	60.5	60.5	95	59.1	3	8	112	0.00	29.395 
23:45	60.5	60.5	60.5	95	59.1	2	7	112	0.00	29.387 
23:50	60.5	60.5	60.5	95	59.1	1	3	112	0.00	29.387 
23:55	60.5	60.5	60.5	95	59.1	0	2	135	0.00	29.387 

CoCoRaHS
IN-AL-39
A2 Web Hosting
Creative Commons License
GoDaddy
search engine by freefind advanced

loaded 2018-11-16 11:21:27 • last modified 2010-11-18 10:43:29
Privacy PolicyDisclaimer
• wx.awcolley.com is powered by PmWiki v.2002016 •
• all content (unless otherwise noted) © 2018 A W Colley